AirNav   Air Wisconsin pilot careers
 
 687 users online  

L26 Hesperia Airport
Hesperia, California, USA

GOING TO HESPERIA?


FAA INFORMATION EFFECTIVE 07 DECEMBER 2017

Location

FAA Identifier: L26
Lat/Long: 34-22-37.0000N / 117-18-57.8000W
34-22.616667N / 117-18.963333W
34.3769444 / -117.3160556
(estimated)
Elevation: 3390 ft. / 1033 m (estimated)
Variation: 14E (1985)
From city: 3 miles S of HESPERIA, CA
Time zone: UTC -8 (UTC -7 during Daylight Saving Time)
Zip code: 92345

Airport Operations

Airport use: Open to the public
Activation date: 04/1980
Control tower: no
ARTCC: LOS ANGELES CENTER
FSS: RIVERSIDE FLIGHT SERVICE STATION
NOTAMs facility: RAL (NOTAM-D service available)
Attendance: UNATNDD
Pattern altitude: 4390 ft. MSL
Wind indicator: lighted
Segmented circle: yes
Lights: DUSK-DAWN. ACTVT LIRL RY 03/21 - CTAF.
Beacon: white-green (lighted land airport)
Operates sunset to sunrise.

Airport Communications

CTAF/UNICOM: 123.0
WX AWOS-3 at VCV (14 nm N): 135.475 (760-246-3635)
WX AWOS-3 at SBD (17 nm S): 124.175 (909-382-0067)

Nearby radio navigation aids

VOR radial/distance  VOR name  Freq  Var
VCVr150/13.5VICTORVILLE VOR/DME109.0514E
RALr001/(26.2)RIVERSIDE VOR112.4014E
POMr038/29.4POMONA VORTAC110.4015E
PDZr006/29.5PARADISE VORTAC112.2015E
HDFr336/(36.6)HOMELAND VOR113.4014E

 
NDB name  Hdg/Dist  Freq  Var  ID
EL MONTE049/39.535915EEMT . -- -

Airport Services

Fuel available: 100LL
Parking: tiedowns

Runway Information

Runway 3/21

Dimensions: 3910 x 50 ft. / 1192 x 15 m
Surface: asphalt, in fair condition
Weight bearing capacity: 
Single wheel: 12.0
Runway edge lights: low intensity
RUNWAY 3  RUNWAY 21
Latitude: 34-22.363000N34-22.870000N
Longitude: 117-19.203667W117-18.723167W
Elevation: 3390.0 ft.
Gradient: 0.5%0.5%
Traffic pattern: rightleft
Displaced threshold: 300 ft.550 ft.
Markings: basic, in fair conditionbasic, in fair condition
Runway end identifier lights: nono
Obstructions: 7 ft. tree, 340 ft. from runway, 78 ft. right of centerline, 20:1 slope to clear
ROAD AT 30 FT FM THR.
15 ft. road, 200 ft. from runway, 125 ft. right of centerline
+6 FT FENCE 10 FT FM THLD & ROAD RUNS THRU PRIM SFC.

Airport Ownership and Management from official FAA records

Ownership: Privately-owned
Owner: SILVERWOOD AVIATION INC
7070 SUMMIT VALLEY ROAD
HESPERIA, CA 92345
Phone 310-658-1825
Manager: DEBBIE VESPY
7070 SUMMIT VALLEY ROAD
HESPERIA, CA 92345
Phone (442) 243-4331

Airport Operational Statistics

Aircraft based on the field: 33
Single engine airplanes: 29
Multi engine airplanes: 2
Helicopters: 1
Ultralights: 1
    
Aircraft operations: avg 115/week *
67% local general aviation
33% transient general aviation
* for 12-month period ending 31 December 2016

Additional Remarks

PUBLIC ROAD ACCESS TO RUNWAY AND TAXIWAY IN MULTIPLE LOCATIONS.
SLIGHT UPHILL GRADE TO RY 21. PILOTS SHOULD BE AWARE OF RISING SURROUNDING TERRAIN TO THE SOUTH. RY 21 HAS A PERIMETER FENCE THAT SEPARATES RY 21 FROM ROAD.
CALM WIND USE RY 21.

Instrument Procedures

There are no published instrument procedures at L26.

Some nearby airports with instrument procedures:

KAPV - Apple Valley Airport (14 nm NE)
KVCV - Southern California Logistics Airport (14 nm N)
KSBD - San Bernardino International Airport (17 nm S)
KREI - Redlands Municipal Airport (19 nm SE)
KRIR - Flabob Airport (24 nm S)
 
Loc | Ops | Rwys | IFR | FBO | Links
Com | Nav | Svcs | Stats | Notes

San Bernardino International Airport Authority
 
Area around L26 (Hesperia Airport)
 
Road maps at: MapQuest Bing Google
 
Aerial photo
WARNING: Photo may not be current or correct
Aerial photo of L26 (Hesperia Airport)
Taken in February 2008

Do you have a better or more recent aerial photo of Hesperia Airport that you would like to share? If so, please send us your photo.

 
Sectional chart

 
Airport distance calculator
Flying to Hesperia Airport? Find the distance to fly.

From to L26

Sunrise and sunset
Times for 16-Dec-2017
 Local
(UTC-8)
 Zulu
(UTC)
Morning civil twilight06:2214:22
Sunrise06:5014:50
Sunset16:4000:40
Evening civil twilight17:0801:08

Current date and time
Zulu (UTC)  17-Dec-2017 02:04:54
Local (UTC-8)  16-Dec-2017 18:04:54
 
METAR
KAPV 
14nm NE 
SuperAWOS
170055Z AUTO 00000KT 13/M09 A2986
KSBD 
17nm S 
170150Z 24006KT 04SM SKC 14/08 A2973
KREI 
19nm SE 
SuperAWOS
170155Z AUTO 00000KT 10SM 13/M04 A2975
KGXA 
21nm NW 
170155Z AUTO 05009KT 10SM BKN085 13/M06 A2978 RMK AO2 SLP062 WND DATA ESTMD T01251061
KONT 
24nm SW 
170153Z 22004KT 10SM FEW120 FEW180 14/08 A2972 RMK AO2 SLP063 T01440083
KL35 
24nm E 
170155Z AUTO 12004KT 10SM CLR 00/M11 A2983 RMK AO2
KCCB 
24nm SW 
170155Z AUTO 26006KT 10SM CLR 13/09 A2972 RMK AO2
TAF
KSBD 
17nm S 
161731Z 1618/1718 VRB04KT P6SM BKN250 FM162100 24008KT P6SM SCT020 FM170100 VRB04KT P6SM SKC FM170500 VRB04KT P6SM SKC WS010/05025KT FM170900 05015G25KT P6SM SKC
NOTAMs
Click for the latest NOTAMs
NOTAMs are issued by the DoD/FAA and will open in a separate window not controlled by AirNav.

 

 
 

Would you like to see your business listed on this page?

 If your business provides an interesting product or service to pilots, flight crews, aircraft, or users of the Hesperia Airport, you should consider listing it here.  To start the listing process, click on the button below
 
Add a business
 

Other Pages about Hesperia Airport

philtilden.com/...
 
Update a link
 
Copyright © AirNav, LLC. All rights reserved. Privacy Policy  Contact